sensor_id;sensor_type;location;lat;lon;timestamp;pressure;altitude;pressure_sealevel;temperature
41940;BMP180;23057;48.554;14.454;2023-10-31T00:01:40;91848.00;;;24.30
41940;BMP180;23057;48.554;14.454;2023-10-31T00:04:11;91856.00;;;24.30
41940;BMP180;23057;48.554;14.454;2023-10-31T00:06:42;91856.00;;;24.30
41940;BMP180;23057;48.554;14.454;2023-10-31T00:09:13;91859.00;;;24.20
41940;BMP180;23057;48.554;14.454;2023-10-31T00:11:43;91884.00;;;24.20
41940;BMP180;23057;48.554;14.454;2023-10-31T00:14:15;91913.00;;;24.10
41940;BMP180;23057;48.554;14.454;2023-10-31T00:16:45;91920.00;;;24.10
41940;BMP180;23057;48.554;14.454;2023-10-31T00:19:19;91938.00;;;23.90
41940;BMP180;23057;48.554;14.454;2023-10-31T00:21:49;91939.00;;;23.80
41940;BMP180;23057;48.554;14.454;2023-10-31T00:24:20;91947.00;;;23.60
41940;BMP180;23057;48.554;14.454;2023-10-31T00:26:51;91952.00;;;23.60
41940;BMP180;23057;48.554;14.454;2023-10-31T00:29:22;91955.00;;;23.50
41940;BMP180;23057;48.554;14.454;2023-10-31T00:31:53;91954.00;;;23.30
41940;BMP180;23057;48.554;14.454;2023-10-31T00:34:24;91958.00;;;23.20
41940;BMP180;23057;48.554;14.454;2023-10-31T00:36:54;91957.00;;;23.10
41940;BMP180;23057;48.554;14.454;2023-10-31T00:39:25;91966.00;;;22.90
41940;BMP180;23057;48.554;14.454;2023-10-31T00:41:56;91964.00;;;22.80
41940;BMP180;23057;48.554;14.454;2023-10-31T00:44:27;91956.00;;;22.70
41940;BMP180;23057;48.554;14.454;2023-10-31T00:46:58;91975.00;;;22.60
41940;BMP180;23057;48.554;14.454;2023-10-31T00:49:28;91980.00;;;22.40
41940;BMP180;23057;48.554;14.454;2023-10-31T00:51:59;91980.00;;;22.30
41940;BMP180;23057;48.554;14.454;2023-10-31T00:54:30;91972.00;;;22.10
41940;BMP180;23057;48.554;14.454;2023-10-31T00:57:01;91990.00;;;22.00
41940;BMP180;23057;48.554;14.454;2023-10-31T00:59:32;91993.00;;;21.70
41940;BMP180;23057;48.554;14.454;2023-10-31T01:02:03;91998.00;;;21.50
41940;BMP180;23057;48.554;14.454;2023-10-31T01:04:36;91998.00;;;21.30
41940;BMP180;23057;48.554;14.454;2023-10-31T01:07:07;92015.00;;;21.20
41940;BMP180;23057;48.554;14.454;2023-10-31T01:09:42;92025.00;;;21.00
41940;BMP180;23057;48.554;14.454;2023-10-31T01:12:14;92040.00;;;20.80
41940;BMP180;23057;48.554;14.454;2023-10-31T01:14:45;92046.00;;;20.70
41940;BMP180;23057;48.554;14.454;2023-10-31T01:17:16;92058.00;;;20.50
41940;BMP180;23057;48.554;14.454;2023-10-31T01:19:47;92072.00;;;20.40
41940;BMP180;23057;48.554;14.454;2023-10-31T01:22:18;92072.00;;;20.20
41940;BMP180;23057;48.554;14.454;2023-10-31T01:24:48;92088.00;;;20.10
41940;BMP180;23057;48.554;14.454;2023-10-31T01:27:19;92081.00;;;20.00
41940;BMP180;23057;48.554;14.454;2023-10-31T01:29:50;92091.00;;;19.90
41940;BMP180;23057;48.554;14.454;2023-10-31T01:32:21;92086.00;;;19.80
41940;BMP180;23057;48.554;14.454;2023-10-31T01:34:52;92092.00;;;19.60
41940;BMP180;23057;48.554;14.454;2023-10-31T01:37:22;92095.00;;;19.50
41940;BMP180;23057;48.554;14.454;2023-10-31T01:39:53;92099.00;;;19.40
41940;BMP180;23057;48.554;14.454;2023-10-31T01:42:24;92097.00;;;19.40
41940;BMP180;23057;48.554;14.454;2023-10-31T01:44:55;92086.00;;;19.30
41940;BMP180;23057;48.554;14.454;2023-10-31T01:47:26;92086.00;;;19.20
41940;BMP180;23057;48.554;14.454;2023-10-31T01:49:57;92079.00;;;19.10
41940;BMP180;23057;48.554;14.454;2023-10-31T01:52:29;92090.00;;;19.00
41940;BMP180;23057;48.554;14.454;2023-10-31T01:55:04;92088.00;;;18.90
41940;BMP180;23057;48.554;14.454;2023-10-31T01:57:36;92094.00;;;18.90
41940;BMP180;23057;48.554;14.454;2023-10-31T02:00:07;92087.00;;;18.80
41940;BMP180;23057;48.554;14.454;2023-10-31T02:02:41;92098.00;;;18.70
41940;BMP180;23057;48.554;14.454;2023-10-31T02:05:13;92096.00;;;18.60
41940;BMP180;23057;48.554;14.454;2023-10-31T02:07:45;92106.00;;;18.60
41940;BMP180;23057;48.554;14.454;2023-10-31T02:10:17;92106.00;;;18.50
41940;BMP180;23057;48.554;14.454;2023-10-31T02:12:47;92100.00;;;18.50
41940;BMP180;23057;48.554;14.454;2023-10-31T02:15:18;92111.00;;;18.40
41940;BMP180;23057;48.554;14.454;2023-10-31T02:17:49;92105.00;;;18.40
41940;BMP180;23057;48.554;14.454;2023-10-31T02:20:20;92109.00;;;18.30
41940;BMP180;23057;48.554;14.454;2023-10-31T02:22:51;92128.00;;;18.30
41940;BMP180;23057;48.554;14.454;2023-10-31T02:25:21;92121.00;;;18.30
41940;BMP180;23057;48.554;14.454;2023-10-31T02:27:52;92129.00;;;18.30
41940;BMP180;23057;48.554;14.454;2023-10-31T02:30:24;92131.00;;;18.20
41940;BMP180;23057;48.554;14.454;2023-10-31T02:32:55;92128.00;;;18.20
41940;BMP180;23057;48.554;14.454;2023-10-31T02:35:26;92138.00;;;18.20
41940;BMP180;23057;48.554;14.454;2023-10-31T02:37:56;92144.00;;;18.20
41940;BMP180;23057;48.554;14.454;2023-10-31T02:40:27;92134.00;;;18.20
41940;BMP180;23057;48.554;14.454;2023-10-31T02:42:58;92144.00;;;18.20
41940;BMP180;23057;48.554;14.454;2023-10-31T02:45:29;92155.00;;;18.30
41940;BMP180;23057;48.554;14.454;2023-10-31T02:48:00;92158.00;;;18.30
41940;BMP180;23057;48.554;14.454;2023-10-31T02:50:31;92164.00;;;18.30
41940;BMP180;23057;48.554;14.454;2023-10-31T02:53:02;92160.00;;;18.40
41940;BMP180;23057;48.554;14.454;2023-10-31T02:55:33;92174.00;;;18.40
41940;BMP180;23057;48.554;14.454;2023-10-31T02:58:04;92173.00;;;18.50
41940;BMP180;23057;48.554;14.454;2023-10-31T03:00:34;92187.00;;;18.50
41940;BMP180;23057;48.554;14.454;2023-10-31T03:03:05;92190.00;;;18.50
41940;BMP180;23057;48.554;14.454;2023-10-31T03:05:36;92191.00;;;18.50
41940;BMP180;23057;48.554;14.454;2023-10-31T03:08:07;92189.00;;;18.50
41940;BMP180;23057;48.554;14.454;2023-10-31T03:10:41;92191.00;;;18.50
41940;BMP180;23057;48.554;14.454;2023-10-31T03:13:12;92188.00;;;18.50
41940;BMP180;23057;48.554;14.454;2023-10-31T03:15:44;92190.00;;;18.50
41940;BMP180;23057;48.554;14.454;2023-10-31T03:18:15;92194.00;;;18.50
41940;BMP180;23057;48.554;14.454;2023-10-31T03:20:46;92202.00;;;18.50
41940;BMP180;23057;48.554;14.454;2023-10-31T03:23:17;92190.00;;;18.50
41940;BMP180;23057;48.554;14.454;2023-10-31T03:25:48;92190.00;;;18.50
41940;BMP180;23057;48.554;14.454;2023-10-31T03:28:20;92193.00;;;18.60
41940;BMP180;23057;48.554;14.454;2023-10-31T03:30:53;92196.00;;;18.60
41940;BMP180;23057;48.554;14.454;2023-10-31T03:33:24;92208.00;;;18.50
41940;BMP180;23057;48.554;14.454;2023-10-31T03:35:55;92212.00;;;18.50
41940;BMP180;23057;48.554;14.454;2023-10-31T03:38:26;92214.00;;;18.40
41940;BMP180;23057;48.554;14.454;2023-10-31T03:40:57;92205.00;;;18.40
41940;BMP180;23057;48.554;14.454;2023-10-31T03:43:28;92206.00;;;18.40
41940;BMP180;23057;48.554;14.454;2023-10-31T03:45:59;92206.00;;;18.40
41940;BMP180;23057;48.554;14.454;2023-10-31T03:48:30;92200.00;;;18.40
41940;BMP180;23057;48.554;14.454;2023-10-31T03:51:01;92218.00;;;18.30
41940;BMP180;23057;48.554;14.454;2023-10-31T03:53:32;92217.00;;;18.30
41940;BMP180;23057;48.554;14.454;2023-10-31T03:56:04;92220.00;;;18.30
41940;BMP180;23057;48.554;14.454;2023-10-31T03:58:34;92220.00;;;18.20
41940;BMP180;23057;48.554;14.454;2023-10-31T04:01:05;92224.00;;;18.20
41940;BMP180;23057;48.554;14.454;2023-10-31T04:03:36;92225.00;;;18.20
41940;BMP180;23057;48.554;14.454;2023-10-31T04:06:07;92235.00;;;18.20
41940;BMP180;23057;48.554;14.454;2023-10-31T04:08:38;92249.00;;;18.20
41940;BMP180;23057;48.554;14.454;2023-10-31T04:11:09;92252.00;;;18.20
41940;BMP180;23057;48.554;14.454;2023-10-31T04:13:40;92254.00;;;18.10
41940;BMP180;23057;48.554;14.454;2023-10-31T04:16:10;92258.00;;;18.00
41940;BMP180;23057;48.554;14.454;2023-10-31T04:18:41;92267.00;;;17.90
41940;BMP180;23057;48.554;14.454;2023-10-31T04:21:12;92271.00;;;17.90
41940;BMP180;23057;48.554;14.454;2023-10-31T04:23:43;92274.00;;;17.80
41940;BMP180;23057;48.554;14.454;2023-10-31T04:26:14;92291.00;;;17.70
41940;BMP180;23057;48.554;14.454;2023-10-31T04:28:46;92295.00;;;17.70
41940;BMP180;23057;48.554;14.454;2023-10-31T04:31:17;92287.00;;;17.70
41940;BMP180;23057;48.554;14.454;2023-10-31T04:33:47;92291.00;;;17.60
41940;BMP180;23057;48.554;14.454;2023-10-31T04:36:18;92300.00;;;17.60
41940;BMP180;23057;48.554;14.454;2023-10-31T04:38:49;92303.00;;;17.50
41940;BMP180;23057;48.554;14.454;2023-10-31T04:41:20;92294.00;;;17.50
41940;BMP180;23057;48.554;14.454;2023-10-31T04:43:51;92301.00;;;17.40
41940;BMP180;23057;48.554;14.454;2023-10-31T04:46:21;92299.00;;;17.40
41940;BMP180;23057;48.554;14.454;2023-10-31T04:48:52;92310.00;;;17.30
41940;BMP180;23057;48.554;14.454;2023-10-31T04:51:24;92318.00;;;17.30
41940;BMP180;23057;48.554;14.454;2023-10-31T04:53:54;92326.00;;;17.20
41940;BMP180;23057;48.554;14.454;2023-10-31T04:56:25;92328.00;;;17.20
41940;BMP180;23057;48.554;14.454;2023-10-31T04:58:56;92328.00;;;17.10
41940;BMP180;23057;48.554;14.454;2023-10-31T05:01:27;92339.00;;;17.10
41940;BMP180;23057;48.554;14.454;2023-10-31T05:03:58;92337.00;;;17.10
41940;BMP180;23057;48.554;14.454;2023-10-31T05:06:28;92340.00;;;17.00
41940;BMP180;23057;48.554;14.454;2023-10-31T05:08:59;92343.00;;;17.00
41940;BMP180;23057;48.554;14.454;2023-10-31T05:11:30;92343.00;;;17.00
41940;BMP180;23057;48.554;14.454;2023-10-31T05:14:02;92350.00;;;16.90
41940;BMP180;23057;48.554;14.454;2023-10-31T05:16:40;92342.00;;;16.90
41940;BMP180;23057;48.554;14.454;2023-10-31T05:19:12;92350.00;;;16.90
41940;BMP180;23057;48.554;14.454;2023-10-31T05:21:43;92342.00;;;16.90
41940;BMP180;23057;48.554;14.454;2023-10-31T05:24:14;92335.00;;;16.80
41940;BMP180;23057;48.554;14.454;2023-10-31T05:26:44;92351.00;;;16.80
41940;BMP180;23057;48.554;14.454;2023-10-31T05:29:16;92358.00;;;16.80
41940;BMP180;23057;48.554;14.454;2023-10-31T05:31:47;92372.00;;;16.80
41940;BMP180;23057;48.554;14.454;2023-10-31T05:34:18;92375.00;;;16.80
41940;BMP180;23057;48.554;14.454;2023-10-31T05:36:49;92388.00;;;16.80
41940;BMP180;23057;48.554;14.454;2023-10-31T05:39:19;92394.00;;;16.80
41940;BMP180;23057;48.554;14.454;2023-10-31T05:41:50;92396.00;;;16.80
41940;BMP180;23057;48.554;14.454;2023-10-31T05:44:21;92397.00;;;16.80
41940;BMP180;23057;48.554;14.454;2023-10-31T05:46:52;92396.00;;;16.80
41940;BMP180;23057;48.554;14.454;2023-10-31T05:49:23;92399.00;;;16.80
41940;BMP180;23057;48.554;14.454;2023-10-31T05:51:54;92396.00;;;16.70
41940;BMP180;23057;48.554;14.454;2023-10-31T05:54:24;92398.00;;;16.70
41940;BMP180;23057;48.554;14.454;2023-10-31T05:56:56;92404.00;;;16.70
41940;BMP180;23057;48.554;14.454;2023-10-31T05:59:27;92412.00;;;16.60
41940;BMP180;23057;48.554;14.454;2023-10-31T06:01:58;92409.00;;;16.60
41940;BMP180;23057;48.554;14.454;2023-10-31T06:04:29;92414.00;;;16.60
41940;BMP180;23057;48.554;14.454;2023-10-31T06:07:00;92422.00;;;16.60
41940;BMP180;23057;48.554;14.454;2023-10-31T06:09:30;92414.00;;;16.60
41940;BMP180;23057;48.554;14.454;2023-10-31T06:12:04;92403.00;;;16.70
41940;BMP180;23057;48.554;14.454;2023-10-31T06:14:37;92402.00;;;16.60
41940;BMP180;23057;48.554;14.454;2023-10-31T06:17:07;92407.00;;;16.60
41940;BMP180;23057;48.554;14.454;2023-10-31T06:19:38;92415.00;;;16.60
41940;BMP180;23057;48.554;14.454;2023-10-31T06:22:15;92424.00;;;16.60
41940;BMP180;23057;48.554;14.454;2023-10-31T06:24:46;92431.00;;;16.60
41940;BMP180;23057;48.554;14.454;2023-10-31T06:27:17;92434.00;;;16.50
41940;BMP180;23057;48.554;14.454;2023-10-31T06:29:48;92449.00;;;16.50
41940;BMP180;23057;48.554;14.454;2023-10-31T06:32:19;92454.00;;;16.50
41940;BMP180;23057;48.554;14.454;2023-10-31T06:34:49;92453.00;;;16.50
41940;BMP180;23057;48.554;14.454;2023-10-31T06:37:20;92447.00;;;16.60
41940;BMP180;23057;48.554;14.454;2023-10-31T06:39:51;92448.00;;;16.50
41940;BMP180;23057;48.554;14.454;2023-10-31T06:42:22;92446.00;;;16.50
41940;BMP180;23057;48.554;14.454;2023-10-31T06:44:52;92459.00;;;16.50
41940;BMP180;23057;48.554;14.454;2023-10-31T06:47:24;92455.00;;;16.50
41940;BMP180;23057;48.554;14.454;2023-10-31T06:49:54;92474.00;;;16.40
41940;BMP180;23057;48.554;14.454;2023-10-31T06:52:25;92485.00;;;16.40
41940;BMP180;23057;48.554;14.454;2023-10-31T06:54:56;92490.00;;;16.30
41940;BMP180;23057;48.554;14.454;2023-10-31T06:57:27;92474.00;;;16.30
41940;BMP180;23057;48.554;14.454;2023-10-31T06:59:58;92469.00;;;16.30
41940;BMP180;23057;48.554;14.454;2023-10-31T07:02:28;92461.00;;;16.30
41940;BMP180;23057;48.554;14.454;2023-10-31T07:05:00;92455.00;;;16.30
41940;BMP180;23057;48.554;14.454;2023-10-31T07:07:32;92463.00;;;16.30
41940;BMP180;23057;48.554;14.454;2023-10-31T07:10:03;92457.00;;;16.40
41940;BMP180;23057;48.554;14.454;2023-10-31T07:12:34;92453.00;;;16.40
41940;BMP180;23057;48.554;14.454;2023-10-31T07:15:05;92463.00;;;16.40
41940;BMP180;23057;48.554;14.454;2023-10-31T07:17:37;92463.00;;;16.40
41940;BMP180;23057;48.554;14.454;2023-10-31T07:20:08;92471.00;;;16.40
41940;BMP180;23057;48.554;14.454;2023-10-31T07:22:39;92481.00;;;16.50
41940;BMP180;23057;48.554;14.454;2023-10-31T07:25:13;92474.00;;;16.50
41940;BMP180;23057;48.554;14.454;2023-10-31T07:27:44;92477.00;;;16.50
41940;BMP180;23057;48.554;14.454;2023-10-31T07:30:15;92488.00;;;16.50
41940;BMP180;23057;48.554;14.454;2023-10-31T07:32:46;92508.00;;;16.50
41940;BMP180;23057;48.554;14.454;2023-10-31T07:35:16;92528.00;;;16.50
41940;BMP180;23057;48.554;14.454;2023-10-31T07:37:47;92551.00;;;16.50
41940;BMP180;23057;48.554;14.454;2023-10-31T07:40:19;92547.00;;;16.50
41940;BMP180;23057;48.554;14.454;2023-10-31T07:42:49;92568.00;;;16.50
41940;BMP180;23057;48.554;14.454;2023-10-31T07:45:20;92560.00;;;16.50
41940;BMP180;23057;48.554;14.454;2023-10-31T07:47:51;92563.00;;;16.50
41940;BMP180;23057;48.554;14.454;2023-10-31T07:50:22;92554.00;;;16.50
41940;BMP180;23057;48.554;14.454;2023-10-31T07:52:53;92557.00;;;16.50
41940;BMP180;23057;48.554;14.454;2023-10-31T07:55:23;92575.00;;;16.50
41940;BMP180;23057;48.554;14.454;2023-10-31T07:57:54;92584.00;;;16.50
41940;BMP180;23057;48.554;14.454;2023-10-31T08:00:25;92566.00;;;16.50
41940;BMP180;23057;48.554;14.454;2023-10-31T08:02:57;92561.00;;;16.60
41940;BMP180;23057;48.554;14.454;2023-10-31T08:05:27;92553.00;;;16.60
41940;BMP180;23057;48.554;14.454;2023-10-31T08:07:58;92554.00;;;16.60
41940;BMP180;23057;48.554;14.454;2023-10-31T08:10:29;92552.00;;;16.60
41940;BMP180;23057;48.554;14.454;2023-10-31T08:13:00;92552.00;;;16.60
41940;BMP180;23057;48.554;14.454;2023-10-31T08:15:31;92547.00;;;16.60
41940;BMP180;23057;48.554;14.454;2023-10-31T08:18:02;92553.00;;;16.50
41940;BMP180;23057;48.554;14.454;2023-10-31T08:20:32;92549.00;;;16.50
41940;BMP180;23057;48.554;14.454;2023-10-31T08:23:04;92550.00;;;16.60
41940;BMP180;23057;48.554;14.454;2023-10-31T08:25:35;92549.00;;;16.60
41940;BMP180;23057;48.554;14.454;2023-10-31T08:28:06;92550.00;;;16.60
41940;BMP180;23057;48.554;14.454;2023-10-31T08:30:37;92566.00;;;16.60
41940;BMP180;23057;48.554;14.454;2023-10-31T08:33:09;92577.00;;;16.70
41940;BMP180;23057;48.554;14.454;2023-10-31T08:35:40;92576.00;;;16.80
41940;BMP180;23057;48.554;14.454;2023-10-31T08:38:12;92570.00;;;16.80
41940;BMP180;23057;48.554;14.454;2023-10-31T08:40:43;92544.00;;;16.90
41940;BMP180;23057;48.554;14.454;2023-10-31T08:43:14;92555.00;;;17.00
41940;BMP180;23057;48.554;14.454;2023-10-31T08:45:44;92551.00;;;17.00
41940;BMP180;23057;48.554;14.454;2023-10-31T08:48:15;92557.00;;;17.00
41940;BMP180;23057;48.554;14.454;2023-10-31T08:50:46;92563.00;;;17.00
41940;BMP180;23057;48.554;14.454;2023-10-31T08:53:17;92557.00;;;17.00
41940;BMP180;23057;48.554;14.454;2023-10-31T08:55:49;92563.00;;;17.00
41940;BMP180;23057;48.554;14.454;2023-10-31T08:58:20;92551.00;;;17.00
41940;BMP180;23057;48.554;14.454;2023-10-31T09:00:51;92547.00;;;17.00
41940;BMP180;23057;48.554;14.454;2023-10-31T09:03:21;92543.00;;;17.00
41940;BMP180;23057;48.554;14.454;2023-10-31T09:05:52;92542.00;;;17.00
41940;BMP180;23057;48.554;14.454;2023-10-31T09:08:23;92548.00;;;17.00
41940;BMP180;23057;48.554;14.454;2023-10-31T09:10:54;92538.00;;;17.00
41940;BMP180;23057;48.554;14.454;2023-10-31T09:13:25;92526.00;;;17.00
41940;BMP180;23057;48.554;14.454;2023-10-31T09:15:55;92548.00;;;17.00
41940;BMP180;23057;48.554;14.454;2023-10-31T09:18:27;92562.00;;;17.00
41940;BMP180;23057;48.554;14.454;2023-10-31T09:20:58;92569.00;;;17.00
41940;BMP180;23057;48.554;14.454;2023-10-31T09:23:29;92575.00;;;17.00
41940;BMP180;23057;48.554;14.454;2023-10-31T09:26:00;92583.00;;;16.90
41940;BMP180;23057;48.554;14.454;2023-10-31T09:28:30;92593.00;;;16.80
41940;BMP180;23057;48.554;14.454;2023-10-31T09:31:01;92601.00;;;16.80
41940;BMP180;23057;48.554;14.454;2023-10-31T09:33:32;92594.00;;;16.70
41940;BMP180;23057;48.554;14.454;2023-10-31T09:36:04;92604.00;;;16.80
41940;BMP180;23057;48.554;14.454;2023-10-31T09:38:35;92600.00;;;16.80
41940;BMP180;23057;48.554;14.454;2023-10-31T09:41:06;92597.00;;;16.70
41940;BMP180;23057;48.554;14.454;2023-10-31T09:43:37;92594.00;;;16.80
41940;BMP180;23057;48.554;14.454;2023-10-31T09:46:08;92595.00;;;16.80
41940;BMP180;23057;48.554;14.454;2023-10-31T09:48:41;92590.00;;;16.80
41940;BMP180;23057;48.554;14.454;2023-10-31T09:51:12;92608.00;;;16.70
41940;BMP180;23057;48.554;14.454;2023-10-31T09:53:45;92626.00;;;16.70
41940;BMP180;23057;48.554;14.454;2023-10-31T09:56:18;92633.00;;;16.70
41940;BMP180;23057;48.554;14.454;2023-10-31T09:58:49;92658.00;;;16.70
41940;BMP180;23057;48.554;14.454;2023-10-31T10:01:20;92663.00;;;16.70
41940;BMP180;23057;48.554;14.454;2023-10-31T10:03:52;92683.00;;;16.60
41940;BMP180;23057;48.554;14.454;2023-10-31T10:06:24;92682.00;;;16.60
41940;BMP180;23057;48.554;14.454;2023-10-31T10:08:56;92685.00;;;16.50
41940;BMP180;23057;48.554;14.454;2023-10-31T10:11:27;92678.00;;;16.50
41940;BMP180;23057;48.554;14.454;2023-10-31T10:13:59;92686.00;;;16.50
41940;BMP180;23057;48.554;14.454;2023-10-31T10:16:31;92682.00;;;16.50
41940;BMP180;23057;48.554;14.454;2023-10-31T10:19:20;92671.00;;;16.50
41940;BMP180;23057;48.554;14.454;2023-10-31T10:21:58;92676.00;;;16.50
41940;BMP180;23057;48.554;14.454;2023-10-31T10:24:29;92675.00;;;16.50
41940;BMP180;23057;48.554;14.454;2023-10-31T10:27:00;92671.00;;;16.50
41940;BMP180;23057;48.554;14.454;2023-10-31T10:29:31;92655.00;;;16.50
41940;BMP180;23057;48.554;14.454;2023-10-31T10:32:05;92633.00;;;16.50
41940;BMP180;23057;48.554;14.454;2023-10-31T10:34:42;92608.00;;;16.50
41940;BMP180;23057;48.554;14.454;2023-10-31T10:37:13;92610.00;;;16.50
41940;BMP180;23057;48.554;14.454;2023-10-31T10:39:47;92589.00;;;16.40
41940;BMP180;23057;48.554;14.454;2023-10-31T10:42:45;92604.00;;;16.40
41940;BMP180;23057;48.554;14.454;2023-10-31T10:45:20;92606.00;;;16.40
41940;BMP180;23057;48.554;14.454;2023-10-31T10:47:53;92617.00;;;16.40
41940;BMP180;23057;48.554;14.454;2023-10-31T10:50:33;92622.00;;;16.40
41940;BMP180;23057;48.554;14.454;2023-10-31T10:53:13;92631.00;;;16.40
41940;BMP180;23057;48.554;14.454;2023-10-31T10:55:56;92639.00;;;16.40
41940;BMP180;23057;48.554;14.454;2023-10-31T10:58:55;92651.00;;;16.30
41940;BMP180;23057;48.554;14.454;2023-10-31T11:01:35;92664.00;;;16.20
41940;BMP180;23057;48.554;14.454;2023-10-31T11:04:08;92668.00;;;16.20
41940;BMP180;23057;48.554;14.454;2023-10-31T11:06:40;92673.00;;;16.10
41940;BMP180;23057;48.554;14.454;2023-10-31T11:09:13;92681.00;;;16.00
41940;BMP180;23057;48.554;14.454;2023-10-31T11:11:46;92685.00;;;15.90
41940;BMP180;23057;48.554;14.454;2023-10-31T11:14:20;92686.00;;;15.80
41940;BMP180;23057;48.554;14.454;2023-10-31T11:16:54;92678.00;;;15.80
41940;BMP180;23057;48.554;14.454;2023-10-31T11:19:31;92679.00;;;15.80
41940;BMP180;23057;48.554;14.454;2023-10-31T11:22:05;92667.00;;;15.80
41940;BMP180;23057;48.554;14.454;2023-10-31T11:24:37;92659.00;;;15.80
41940;BMP180;23057;48.554;14.454;2023-10-31T11:27:08;92663.00;;;15.90
41940;BMP180;23057;48.554;14.454;2023-10-31T11:29:40;92673.00;;;15.90
41940;BMP180;23057;48.554;14.454;2023-10-31T11:32:11;92668.00;;;15.90
41940;BMP180;23057;48.554;14.454;2023-10-31T11:34:42;92680.00;;;15.80
41940;BMP180;23057;48.554;14.454;2023-10-31T11:37:32;92693.00;;;15.90
41940;BMP180;23057;48.554;14.454;2023-10-31T11:43:06;92687.00;;;15.90
41940;BMP180;23057;48.554;14.454;2023-10-31T11:48:11;92688.00;;;15.90
41940;BMP180;23057;48.554;14.454;2023-10-31T11:50:42;92678.00;;;15.90
41940;BMP180;23057;48.554;14.454;2023-10-31T11:53:14;92673.00;;;15.90
41940;BMP180;23057;48.554;14.454;2023-10-31T11:55:47;92680.00;;;15.90
41940;BMP180;23057;48.554;14.454;2023-10-31T11:58:23;92668.00;;;15.90
41940;BMP180;23057;48.554;14.454;2023-10-31T12:01:05;92668.00;;;15.80
41940;BMP180;23057;48.554;14.454;2023-10-31T12:03:43;92653.00;;;15.80
41940;BMP180;23057;48.554;14.454;2023-10-31T12:06:22;92658.00;;;15.80
41940;BMP180;23057;48.554;14.454;2023-10-31T12:08:52;92651.00;;;15.80
41940;BMP180;23057;48.554;14.454;2023-10-31T12:11:23;92656.00;;;15.80
41940;BMP180;23057;48.554;14.454;2023-10-31T12:14:02;92652.00;;;15.80
41940;BMP180;23057;48.554;14.454;2023-10-31T12:16:35;92654.00;;;15.80
41940;BMP180;23057;48.554;14.454;2023-10-31T12:19:06;92659.00;;;15.80
41940;BMP180;23057;48.554;14.454;2023-10-31T12:21:45;92652.00;;;15.80
41940;BMP180;23057;48.554;14.454;2023-10-31T12:24:20;92652.00;;;15.80
41940;BMP180;23057;48.554;14.454;2023-10-31T12:26:51;92653.00;;;15.80
41940;BMP180;23057;48.554;14.454;2023-10-31T12:29:22;92659.00;;;15.90
41940;BMP180;23057;48.554;14.454;2023-10-31T12:31:54;92648.00;;;15.90
41940;BMP180;23057;48.554;14.454;2023-10-31T12:34:28;92638.00;;;15.90
41940;BMP180;23057;48.554;14.454;2023-10-31T12:36:59;92629.00;;;15.90
41940;BMP180;23057;48.554;14.454;2023-10-31T12:39:31;92617.00;;;15.80
41940;BMP180;23057;48.554;14.454;2023-10-31T12:42:03;92614.00;;;15.80
41940;BMP180;23057;48.554;14.454;2023-10-31T12:44:36;92623.00;;;15.80
41940;BMP180;23057;48.554;14.454;2023-10-31T12:47:07;92629.00;;;15.70
41940;BMP180;23057;48.554;14.454;2023-10-31T12:49:39;92633.00;;;15.70
41940;BMP180;23057;48.554;14.454;2023-10-31T12:52:10;92640.00;;;15.70
41940;BMP180;23057;48.554;14.454;2023-10-31T12:54:41;92652.00;;;15.80
41940;BMP180;23057;48.554;14.454;2023-10-31T12:57:11;92658.00;;;15.80
41940;BMP180;23057;48.554;14.454;2023-10-31T12:59:42;92664.00;;;15.80
41940;BMP180;23057;48.554;14.454;2023-10-31T13:02:17;92670.00;;;15.70
41940;BMP180;23057;48.554;14.454;2023-10-31T13:04:47;92671.00;;;15.70
41940;BMP180;23057;48.554;14.454;2023-10-31T13:07:27;92666.00;;;15.80
41940;BMP180;23057;48.554;14.454;2023-10-31T13:09:59;92668.00;;;15.80
41940;BMP180;23057;48.554;14.454;2023-10-31T13:12:31;92672.00;;;15.90
41940;BMP180;23057;48.554;14.454;2023-10-31T13:15:03;92681.00;;;15.80
41940;BMP180;23057;48.554;14.454;2023-10-31T13:17:34;92681.00;;;15.80
41940;BMP180;23057;48.554;14.454;2023-10-31T13:20:15;92682.00;;;15.90
41940;BMP180;23057;48.554;14.454;2023-10-31T13:22:49;92677.00;;;15.90
41940;BMP180;23057;48.554;14.454;2023-10-31T13:25:20;92678.00;;;15.90
41940;BMP180;23057;48.554;14.454;2023-10-31T13:27:51;92688.00;;;15.90
41940;BMP180;23057;48.554;14.454;2023-10-31T13:30:24;92685.00;;;15.90
41940;BMP180;23057;48.554;14.454;2023-10-31T13:32:55;92680.00;;;15.90
41940;BMP180;23057;48.554;14.454;2023-10-31T13:35:27;92689.00;;;15.90
41940;BMP180;23057;48.554;14.454;2023-10-31T13:37:58;92703.00;;;15.90
41940;BMP180;23057;48.554;14.454;2023-10-31T13:40:29;92698.00;;;15.80
41940;BMP180;23057;48.554;14.454;2023-10-31T13:43:00;92706.00;;;15.80
41940;BMP180;23057;48.554;14.454;2023-10-31T13:45:31;92711.00;;;15.80
41940;BMP180;23057;48.554;14.454;2023-10-31T13:48:02;92715.00;;;15.80
41940;BMP180;23057;48.554;14.454;2023-10-31T13:50:32;92720.00;;;15.80
41940;BMP180;23057;48.554;14.454;2023-10-31T13:53:04;92718.00;;;15.90
41940;BMP180;23057;48.554;14.454;2023-10-31T13:55:38;92723.00;;;15.90
41940;BMP180;23057;48.554;14.454;2023-10-31T13:58:08;92722.00;;;15.80
41940;BMP180;23057;48.554;14.454;2023-10-31T14:00:40;92722.00;;;15.80
41940;BMP180;23057;48.554;14.454;2023-10-31T14:03:11;92717.00;;;15.80
41940;BMP180;23057;48.554;14.454;2023-10-31T14:05:41;92720.00;;;15.80
41940;BMP180;23057;48.554;14.454;2023-10-31T14:08:12;92729.00;;;15.80
41940;BMP180;23057;48.554;14.454;2023-10-31T14:10:43;92720.00;;;15.80
41940;BMP180;23057;48.554;14.454;2023-10-31T14:13:16;92728.00;;;15.80
41940;BMP180;23057;48.554;14.454;2023-10-31T14:15:47;92729.00;;;15.70
41940;BMP180;23057;48.554;14.454;2023-10-31T14:18:18;92733.00;;;15.70
41940;BMP180;23057;48.554;14.454;2023-10-31T14:20:49;92741.00;;;15.70
41940;BMP180;23057;48.554;14.454;2023-10-31T14:23:20;92733.00;;;15.70
41940;BMP180;23057;48.554;14.454;2023-10-31T14:25:50;92744.00;;;15.70
41940;BMP180;23057;48.554;14.454;2023-10-31T14:28:21;92744.00;;;15.70